sensor_id;sensor_type;location;lat;lon;timestamp;P1;durP1;ratioP1;P2;durP2;ratioP2
63784;SDS011;49927;48.146;11.420;2023-01-08T00:02:02;17.77;;;9.00;;
63784;SDS011;49927;48.146;11.420;2023-01-08T00:04:28;12.57;;;6.38;;
63784;SDS011;49927;48.146;11.420;2023-01-08T00:06:53;13.10;;;6.78;;
63784;SDS011;49927;48.146;11.420;2023-01-08T00:09:19;9.00;;;6.25;;
63784;SDS011;49927;48.146;11.420;2023-01-08T00:11:46;11.30;;;7.13;;
63784;SDS011;49927;48.146;11.420;2023-01-08T00:14:11;36.05;;;15.02;;
63784;SDS011;49927;48.146;11.420;2023-01-08T00:16:37;17.70;;;9.45;;
63784;SDS011;49927;48.146;11.420;2023-01-08T00:19:02;29.95;;;12.95;;
63784;SDS011;49927;48.146;11.420;2023-01-08T00:21:28;23.35;;;12.52;;
63784;SDS011;49927;48.146;11.420;2023-01-08T00:23:53;21.73;;;13.95;;
63784;SDS011;49927;48.146;11.420;2023-01-08T00:26:19;20.98;;;12.85;;
63784;SDS011;49927;48.146;11.420;2023-01-08T00:28:46;15.95;;;9.10;;
63784;SDS011;49927;48.146;11.420;2023-01-08T00:31:11;16.13;;;8.70;;
63784;SDS011;49927;48.146;11.420;2023-01-08T00:33:37;16.73;;;9.55;;
63784;SDS011;49927;48.146;11.420;2023-01-08T00:36:05;14.27;;;8.13;;
63784;SDS011;49927;48.146;11.420;2023-01-08T00:38:31;13.55;;;8.65;;
63784;SDS011;49927;48.146;11.420;2023-01-08T00:40:57;13.60;;;9.00;;
63784;SDS011;49927;48.146;11.420;2023-01-08T00:43:22;14.90;;;9.00;;
63784;SDS011;49927;48.146;11.420;2023-01-08T00:45:49;17.55;;;8.52;;
63784;SDS011;49927;48.146;11.420;2023-01-08T00:48:15;12.27;;;7.22;;
63784;SDS011;49927;48.146;11.420;2023-01-08T00:50:40;12.55;;;7.00;;
63784;SDS011;49927;48.146;11.420;2023-01-08T00:53:06;10.70;;;5.80;;
63784;SDS011;49927;48.146;11.420;2023-01-08T00:55:31;8.68;;;5.65;;
63784;SDS011;49927;48.146;11.420;2023-01-08T00:57:57;13.45;;;7.00;;
63784;SDS011;49927;48.146;11.420;2023-01-08T01:00:22;9.43;;;6.40;;
63784;SDS011;49927;48.146;11.420;2023-01-08T01:02:49;9.30;;;5.53;;
63784;SDS011;49927;48.146;11.420;2023-01-08T01:05:15;10.95;;;5.20;;
63784;SDS011;49927;48.146;11.420;2023-01-08T01:07:40;6.20;;;4.43;;
63784;SDS011;49927;48.146;11.420;2023-01-08T01:10:06;6.80;;;4.82;;
63784;SDS011;49927;48.146;11.420;2023-01-08T01:12:32;7.68;;;4.85;;
63784;SDS011;49927;48.146;11.420;2023-01-08T01:14:57;6.13;;;4.22;;
63784;SDS011;49927;48.146;11.420;2023-01-08T01:17:23;6.53;;;4.00;;
63784;SDS011;49927;48.146;11.420;2023-01-08T01:19:50;9.15;;;4.75;;
63784;SDS011;49927;48.146;11.420;2023-01-08T01:22:15;7.13;;;4.47;;
63784;SDS011;49927;48.146;11.420;2023-01-08T01:24:41;8.88;;;5.07;;
63784;SDS011;49927;48.146;11.420;2023-01-08T01:27:06;6.88;;;4.20;;
63784;SDS011;49927;48.146;11.420;2023-01-08T01:29:32;5.70;;;4.13;;
63784;SDS011;49927;48.146;11.420;2023-01-08T01:31:57;5.55;;;3.53;;
63784;SDS011;49927;48.146;11.420;2023-01-08T01:34:23;6.28;;;3.50;;
63784;SDS011;49927;48.146;11.420;2023-01-08T01:36:50;8.88;;;4.93;;
63784;SDS011;49927;48.146;11.420;2023-01-08T01:39:15;8.98;;;4.80;;
63784;SDS011;49927;48.146;11.420;2023-01-08T01:41:42;8.35;;;4.85;;
63784;SDS011;49927;48.146;11.420;2023-01-08T01:47:03;7.07;;;4.78;;
63784;SDS011;49927;48.146;11.420;2023-01-08T01:49:33;10.20;;;4.95;;
63784;SDS011;49927;48.146;11.420;2023-01-08T01:52:00;8.63;;;4.82;;
63784;SDS011;49927;48.146;11.420;2023-01-08T01:54:27;6.72;;;3.90;;
63784;SDS011;49927;48.146;11.420;2023-01-08T01:56:54;5.00;;;4.10;;
63784;SDS011;49927;48.146;11.420;2023-01-08T01:59:19;5.53;;;4.25;;
63784;SDS011;49927;48.146;11.420;2023-01-08T02:01:45;5.78;;;3.88;;
63784;SDS011;49927;48.146;11.420;2023-01-08T02:04:11;6.10;;;4.13;;
63784;SDS011;49927;48.146;11.420;2023-01-08T02:06:37;6.95;;;4.20;;
63784;SDS011;49927;48.146;11.420;2023-01-08T02:09:08;6.25;;;4.20;;
63784;SDS011;49927;48.146;11.420;2023-01-08T02:11:40;6.55;;;3.78;;
63784;SDS011;49927;48.146;11.420;2023-01-08T02:14:12;6.90;;;3.80;;
63784;SDS011;49927;48.146;11.420;2023-01-08T02:16:42;5.90;;;4.10;;
63784;SDS011;49927;48.146;11.420;2023-01-08T02:19:13;6.00;;;3.88;;
63784;SDS011;49927;48.146;11.420;2023-01-08T02:21:45;11.55;;;5.38;;
63784;SDS011;49927;48.146;11.420;2023-01-08T02:24:19;7.07;;;3.47;;
63784;SDS011;49927;48.146;11.420;2023-01-08T02:26:50;7.43;;;4.15;;
63784;SDS011;49927;48.146;11.420;2023-01-08T02:29:17;7.35;;;3.90;;
63784;SDS011;49927;48.146;11.420;2023-01-08T02:31:44;8.55;;;4.22;;
63784;SDS011;49927;48.146;11.420;2023-01-08T02:34:10;7.80;;;4.18;;
63784;SDS011;49927;48.146;11.420;2023-01-08T02:36:36;7.43;;;4.20;;
63784;SDS011;49927;48.146;11.420;2023-01-08T02:39:05;6.65;;;4.10;;
63784;SDS011;49927;48.146;11.420;2023-01-08T02:41:37;7.57;;;4.00;;
63784;SDS011;49927;48.146;11.420;2023-01-08T02:44:10;4.53;;;3.90;;
63784;SDS011;49927;48.146;11.420;2023-01-08T02:46:37;5.03;;;3.80;;
63784;SDS011;49927;48.146;11.420;2023-01-08T02:49:04;7.85;;;4.10;;
63784;SDS011;49927;48.146;11.420;2023-01-08T02:51:33;6.68;;;3.53;;
63784;SDS011;49927;48.146;11.420;2023-01-08T02:54:01;6.95;;;4.28;;
63784;SDS011;49927;48.146;11.420;2023-01-08T02:56:29;6.88;;;4.03;;
63784;SDS011;49927;48.146;11.420;2023-01-08T02:58:56;6.65;;;3.20;;
63784;SDS011;49927;48.146;11.420;2023-01-08T03:01:24;8.38;;;3.97;;
63784;SDS011;49927;48.146;11.420;2023-01-08T03:03:51;6.35;;;3.78;;
63784;SDS011;49927;48.146;11.420;2023-01-08T03:06:18;7.32;;;4.15;;
63784;SDS011;49927;48.146;11.420;2023-01-08T03:08:44;8.38;;;4.05;;
63784;SDS011;49927;48.146;11.420;2023-01-08T03:11:12;8.23;;;4.07;;
63784;SDS011;49927;48.146;11.420;2023-01-08T03:13:40;6.70;;;4.00;;
63784;SDS011;49927;48.146;11.420;2023-01-08T03:16:09;6.88;;;3.90;;
63784;SDS011;49927;48.146;11.420;2023-01-08T03:18:42;7.28;;;4.07;;
63784;SDS011;49927;48.146;11.420;2023-01-08T03:21:10;7.85;;;3.97;;
63784;SDS011;49927;48.146;11.420;2023-01-08T03:23:36;7.22;;;3.47;;
63784;SDS011;49927;48.146;11.420;2023-01-08T03:26:03;6.47;;;4.15;;
63784;SDS011;49927;48.146;11.420;2023-01-08T03:28:29;7.68;;;4.65;;
63784;SDS011;49927;48.146;11.420;2023-01-08T03:30:59;6.75;;;3.78;;
63784;SDS011;49927;48.146;11.420;2023-01-08T03:33:25;7.63;;;4.13;;
63784;SDS011;49927;48.146;11.420;2023-01-08T03:35:53;5.80;;;3.63;;
63784;SDS011;49927;48.146;11.420;2023-01-08T03:38:19;6.22;;;4.00;;
63784;SDS011;49927;48.146;11.420;2023-01-08T03:40:51;5.72;;;3.42;;
63784;SDS011;49927;48.146;11.420;2023-01-08T03:43:18;6.05;;;3.55;;
63784;SDS011;49927;48.146;11.420;2023-01-08T03:45:46;6.82;;;4.38;;
63784;SDS011;49927;48.146;11.420;2023-01-08T03:48:13;8.82;;;5.07;;
63784;SDS011;49927;48.146;11.420;2023-01-08T03:50:39;6.38;;;3.97;;
63784;SDS011;49927;48.146;11.420;2023-01-08T03:53:06;6.40;;;4.28;;
63784;SDS011;49927;48.146;11.420;2023-01-08T03:55:31;6.10;;;4.30;;
63784;SDS011;49927;48.146;11.420;2023-01-08T03:57:57;8.10;;;4.68;;
63784;SDS011;49927;48.146;11.420;2023-01-08T04:00:22;7.22;;;4.00;;
63784;SDS011;49927;48.146;11.420;2023-01-08T04:02:48;7.85;;;4.68;;
63784;SDS011;49927;48.146;11.420;2023-01-08T04:05:13;6.65;;;4.60;;
63784;SDS011;49927;48.146;11.420;2023-01-08T04:07:39;7.93;;;4.03;;
63784;SDS011;49927;48.146;11.420;2023-01-08T04:10:07;7.82;;;4.25;;
63784;SDS011;49927;48.146;11.420;2023-01-08T04:12:32;6.45;;;4.00;;
63784;SDS011;49927;48.146;11.420;2023-01-08T04:14:58;7.57;;;3.88;;
63784;SDS011;49927;48.146;11.420;2023-01-08T04:17:23;6.63;;;4.28;;
63784;SDS011;49927;48.146;11.420;2023-01-08T04:19:49;7.35;;;4.15;;
63784;SDS011;49927;48.146;11.420;2023-01-08T04:22:14;5.32;;;3.83;;
63784;SDS011;49927;48.146;11.420;2023-01-08T04:24:40;7.15;;;3.67;;
63784;SDS011;49927;48.146;11.420;2023-01-08T04:27:07;5.35;;;3.53;;
63784;SDS011;49927;48.146;11.420;2023-01-08T04:29:32;6.80;;;4.30;;
63784;SDS011;49927;48.146;11.420;2023-01-08T04:31:58;7.80;;;3.95;;
63784;SDS011;49927;48.146;11.420;2023-01-08T04:34:23;6.75;;;4.18;;
63784;SDS011;49927;48.146;11.420;2023-01-08T04:36:49;6.72;;;4.15;;
63784;SDS011;49927;48.146;11.420;2023-01-08T04:39:15;7.50;;;3.75;;
63784;SDS011;49927;48.146;11.420;2023-01-08T04:41:40;6.20;;;3.28;;
63784;SDS011;49927;48.146;11.420;2023-01-08T04:44:07;8.43;;;3.90;;
63784;SDS011;49927;48.146;11.420;2023-01-08T04:46:33;6.72;;;3.97;;
63784;SDS011;49927;48.146;11.420;2023-01-08T04:48:58;7.20;;;3.63;;
63784;SDS011;49927;48.146;11.420;2023-01-08T04:51:24;4.22;;;3.67;;
63784;SDS011;49927;48.146;11.420;2023-01-08T04:53:49;6.25;;;3.63;;
63784;SDS011;49927;48.146;11.420;2023-01-08T04:56:15;6.22;;;3.47;;
63784;SDS011;49927;48.146;11.420;2023-01-08T04:58:40;8.30;;;3.65;;
63784;SDS011;49927;48.146;11.420;2023-01-08T05:01:11;5.10;;;3.55;;
63784;SDS011;49927;48.146;11.420;2023-01-08T05:03:37;7.00;;;4.55;;
63784;SDS011;49927;48.146;11.420;2023-01-08T05:06:03;5.88;;;3.65;;
63784;SDS011;49927;48.146;11.420;2023-01-08T05:08:28;7.65;;;4.78;;
63784;SDS011;49927;48.146;11.420;2023-01-08T05:10:57;7.95;;;4.03;;
63784;SDS011;49927;48.146;11.420;2023-01-08T05:13:22;7.80;;;3.13;;
63784;SDS011;49927;48.146;11.420;2023-01-08T05:15:48;6.22;;;3.90;;
63784;SDS011;49927;48.146;11.420;2023-01-08T05:18:15;7.43;;;4.00;;
63784;SDS011;49927;48.146;11.420;2023-01-08T05:20:40;7.00;;;3.45;;
63784;SDS011;49927;48.146;11.420;2023-01-08T05:23:06;7.40;;;4.00;;
63784;SDS011;49927;48.146;11.420;2023-01-08T05:25:31;6.70;;;3.90;;
63784;SDS011;49927;48.146;11.420;2023-01-08T05:27:57;7.60;;;3.50;;
63784;SDS011;49927;48.146;11.420;2023-01-08T05:30:22;5.47;;;3.83;;
63784;SDS011;49927;48.146;11.420;2023-01-08T05:32:48;7.60;;;4.57;;
63784;SDS011;49927;48.146;11.420;2023-01-08T05:35:15;7.47;;;4.35;;
63784;SDS011;49927;48.146;11.420;2023-01-08T05:37:40;10.23;;;4.35;;
63784;SDS011;49927;48.146;11.420;2023-01-08T05:40:06;7.97;;;4.75;;
63784;SDS011;49927;48.146;11.420;2023-01-08T05:42:32;6.30;;;4.53;;
63784;SDS011;49927;48.146;11.420;2023-01-08T05:44:58;8.90;;;4.80;;
63784;SDS011;49927;48.146;11.420;2023-01-08T05:47:24;6.82;;;4.10;;
63784;SDS011;49927;48.146;11.420;2023-01-08T05:49:52;6.80;;;4.03;;
63784;SDS011;49927;48.146;11.420;2023-01-08T05:52:19;6.40;;;3.92;;
63784;SDS011;49927;48.146;11.420;2023-01-08T05:54:45;6.85;;;3.63;;
63784;SDS011;49927;48.146;11.420;2023-01-08T05:57:10;6.15;;;4.20;;
63784;SDS011;49927;48.146;11.420;2023-01-08T05:59:36;5.13;;;3.72;;
63784;SDS011;49927;48.146;11.420;2023-01-08T06:02:01;6.35;;;3.42;;
63784;SDS011;49927;48.146;11.420;2023-01-08T06:04:27;4.93;;;3.25;;
63784;SDS011;49927;48.146;11.420;2023-01-08T06:06:52;7.05;;;3.60;;
63784;SDS011;49927;48.146;11.420;2023-01-08T06:09:19;6.10;;;3.80;;
63784;SDS011;49927;48.146;11.420;2023-01-08T06:11:45;7.30;;;3.78;;
63784;SDS011;49927;48.146;11.420;2023-01-08T06:14:10;5.05;;;3.28;;
63784;SDS011;49927;48.146;11.420;2023-01-08T06:16:36;5.40;;;3.53;;
63784;SDS011;49927;48.146;11.420;2023-01-08T06:19:01;7.63;;;4.07;;
63784;SDS011;49927;48.146;11.420;2023-01-08T06:21:27;5.10;;;3.72;;
63784;SDS011;49927;48.146;11.420;2023-01-08T06:23:52;5.93;;;3.83;;
63784;SDS011;49927;48.146;11.420;2023-01-08T06:26:19;8.25;;;3.45;;
63784;SDS011;49927;48.146;11.420;2023-01-08T06:28:44;4.78;;;3.30;;
63784;SDS011;49927;48.146;11.420;2023-01-08T06:31:10;5.95;;;3.80;;
63784;SDS011;49927;48.146;11.420;2023-01-08T06:33:35;6.40;;;4.18;;
63784;SDS011;49927;48.146;11.420;2023-01-08T06:36:01;6.75;;;4.15;;
63784;SDS011;49927;48.146;11.420;2023-01-08T06:38:29;7.20;;;4.40;;
63784;SDS011;49927;48.146;11.420;2023-01-08T06:40:55;8.07;;;4.43;;
63784;SDS011;49927;48.146;11.420;2023-01-08T06:43:22;6.85;;;4.30;;
63784;SDS011;49927;48.146;11.420;2023-01-08T06:45:51;5.70;;;3.65;;
63784;SDS011;49927;48.146;11.420;2023-01-08T06:48:17;7.63;;;4.93;;
63784;SDS011;49927;48.146;11.420;2023-01-08T06:50:43;7.32;;;4.53;;
63784;SDS011;49927;48.146;11.420;2023-01-08T06:53:08;8.75;;;4.50;;
63784;SDS011;49927;48.146;11.420;2023-01-08T06:55:34;7.80;;;5.05;;
63784;SDS011;49927;48.146;11.420;2023-01-08T06:58:00;7.07;;;4.40;;
63784;SDS011;49927;48.146;11.420;2023-01-08T07:00:27;5.30;;;3.28;;
63784;SDS011;49927;48.146;11.420;2023-01-08T07:02:53;3.83;;;2.88;;
63784;SDS011;49927;48.146;11.420;2023-01-08T07:05:19;7.03;;;3.33;;
63784;SDS011;49927;48.146;11.420;2023-01-08T07:07:44;6.15;;;3.55;;
63784;SDS011;49927;48.146;11.420;2023-01-08T07:10:10;4.45;;;2.63;;
63784;SDS011;49927;48.146;11.420;2023-01-08T07:12:35;6.32;;;3.20;;
63784;SDS011;49927;48.146;11.420;2023-01-08T07:15:01;4.90;;;2.92;;
63784;SDS011;49927;48.146;11.420;2023-01-08T07:17:30;3.70;;;2.88;;
63784;SDS011;49927;48.146;11.420;2023-01-08T07:19:56;7.25;;;3.08;;
63784;SDS011;49927;48.146;11.420;2023-01-08T07:22:21;4.50;;;3.25;;
63784;SDS011;49927;48.146;11.420;2023-01-08T07:24:47;5.00;;;3.33;;
63784;SDS011;49927;48.146;11.420;2023-01-08T07:27:12;5.50;;;3.38;;
63784;SDS011;49927;48.146;11.420;2023-01-08T07:29:38;5.57;;;3.00;;
63784;SDS011;49927;48.146;11.420;2023-01-08T07:32:03;3.95;;;3.03;;
63784;SDS011;49927;48.146;11.420;2023-01-08T07:34:30;3.78;;;2.40;;
63784;SDS011;49927;48.146;11.420;2023-01-08T07:36:56;7.50;;;3.20;;
63784;SDS011;49927;48.146;11.420;2023-01-08T07:39:21;4.43;;;2.97;;
63784;SDS011;49927;48.146;11.420;2023-01-08T07:41:47;5.75;;;3.25;;
63784;SDS011;49927;48.146;11.420;2023-01-08T07:44:12;3.53;;;2.60;;
63784;SDS011;49927;48.146;11.420;2023-01-08T07:46:38;4.50;;;2.85;;
63784;SDS011;49927;48.146;11.420;2023-01-08T07:49:03;4.15;;;2.80;;
63784;SDS011;49927;48.146;11.420;2023-01-08T07:51:30;3.85;;;2.65;;
63784;SDS011;49927;48.146;11.420;2023-01-08T07:53:56;3.70;;;2.65;;
63784;SDS011;49927;48.146;11.420;2023-01-08T07:56:21;4.05;;;2.42;;
63784;SDS011;49927;48.146;11.420;2023-01-08T07:58:47;4.68;;;2.83;;
63784;SDS011;49927;48.146;11.420;2023-01-08T08:01:13;4.22;;;2.70;;
63784;SDS011;49927;48.146;11.420;2023-01-08T08:03:39;4.75;;;2.47;;
63784;SDS011;49927;48.146;11.420;2023-01-08T08:06:05;4.45;;;2.83;;
63784;SDS011;49927;48.146;11.420;2023-01-08T08:08:32;3.22;;;2.35;;
63784;SDS011;49927;48.146;11.420;2023-01-08T08:10:57;3.58;;;2.40;;
63784;SDS011;49927;48.146;11.420;2023-01-08T08:13:23;2.50;;;2.30;;
63784;SDS011;49927;48.146;11.420;2023-01-08T08:15:48;4.43;;;2.92;;
63784;SDS011;49927;48.146;11.420;2023-01-08T08:18:14;5.63;;;3.50;;
63784;SDS011;49927;48.146;11.420;2023-01-08T08:20:42;7.88;;;3.80;;
63784;SDS011;49927;48.146;11.420;2023-01-08T08:23:09;9.07;;;5.38;;
63784;SDS011;49927;48.146;11.420;2023-01-08T08:25:37;9.27;;;5.47;;
63784;SDS011;49927;48.146;11.420;2023-01-08T08:28:02;9.55;;;6.57;;
63784;SDS011;49927;48.146;11.420;2023-01-08T08:30:29;11.35;;;5.88;;
63784;SDS011;49927;48.146;11.420;2023-01-08T08:32:57;7.55;;;4.18;;
63784;SDS011;49927;48.146;11.420;2023-01-08T08:35:23;5.22;;;3.38;;
63784;SDS011;49927;48.146;11.420;2023-01-08T08:37:49;5.10;;;3.28;;
63784;SDS011;49927;48.146;11.420;2023-01-08T08:40:14;4.07;;;2.88;;
63784;SDS011;49927;48.146;11.420;2023-01-08T08:42:41;6.00;;;3.30;;
63784;SDS011;49927;48.146;11.420;2023-01-08T08:45:07;8.02;;;3.40;;
63784;SDS011;49927;48.146;11.420;2023-01-08T08:47:33;6.82;;;4.00;;
63784;SDS011;49927;48.146;11.420;2023-01-08T08:49:58;5.15;;;3.58;;
63784;SDS011;49927;48.146;11.420;2023-01-08T08:52:24;7.13;;;3.45;;
63784;SDS011;49927;48.146;11.420;2023-01-08T08:54:49;4.00;;;2.63;;
63784;SDS011;49927;48.146;11.420;2023-01-08T08:57:15;6.43;;;3.35;;
63784;SDS011;49927;48.146;11.420;2023-01-08T08:59:42;4.28;;;2.80;;
63784;SDS011;49927;48.146;11.420;2023-01-08T09:02:08;3.95;;;2.50;;
63784;SDS011;49927;48.146;11.420;2023-01-08T09:04:34;5.53;;;3.17;;
63784;SDS011;49927;48.146;11.420;2023-01-08T09:07:00;6.80;;;2.28;;
63784;SDS011;49927;48.146;11.420;2023-01-08T09:09:25;4.50;;;2.45;;
63784;SDS011;49927;48.146;11.420;2023-01-08T09:11:51;4.30;;;2.58;;
63784;SDS011;49927;48.146;11.420;2023-01-08T09:14:17;3.83;;;2.20;;
63784;SDS011;49927;48.146;11.420;2023-01-08T09:16:44;4.13;;;2.58;;
63784;SDS011;49927;48.146;11.420;2023-01-08T09:19:09;3.42;;;2.42;;
63784;SDS011;49927;48.146;11.420;2023-01-08T09:21:35;3.30;;;2.50;;
63784;SDS011;49927;48.146;11.420;2023-01-08T09:24:01;3.92;;;2.35;;
63784;SDS011;49927;48.146;11.420;2023-01-08T09:26:27;3.28;;;2.10;;
63784;SDS011;49927;48.146;11.420;2023-01-08T09:28:54;4.20;;;1.80;;
63784;SDS011;49927;48.146;11.420;2023-01-08T09:31:19;4.47;;;2.33;;
63784;SDS011;49927;48.146;11.420;2023-01-08T09:33:47;4.00;;;2.65;;
63784;SDS011;49927;48.146;11.420;2023-01-08T09:36:13;3.45;;;2.30;;
63784;SDS011;49927;48.146;11.420;2023-01-08T09:38:39;5.68;;;2.97;;
63784;SDS011;49927;48.146;11.420;2023-01-08T09:41:05;4.47;;;2.95;;
63784;SDS011;49927;48.146;11.420;2023-01-08T09:43:33;9.95;;;3.97;;
63784;SDS011;49927;48.146;11.420;2023-01-08T09:46:01;9.65;;;4.00;;
63784;SDS011;49927;48.146;11.420;2023-01-08T09:48:28;9.68;;;3.67;;
63784;SDS011;49927;48.146;11.420;2023-01-08T09:50:56;31.88;;;9.85;;
63784;SDS011;49927;48.146;11.420;2023-01-08T09:53:22;17.45;;;6.32;;
63784;SDS011;49927;48.146;11.420;2023-01-08T09:55:51;13.60;;;3.92;;
63784;SDS011;49927;48.146;11.420;2023-01-08T09:58:21;12.35;;;4.47;;
63784;SDS011;49927;48.146;11.420;2023-01-08T10:00:58;5.05;;;3.33;;
63784;SDS011;49927;48.146;11.420;2023-01-08T10:03:24;7.70;;;4.22;;
63784;SDS011;49927;48.146;11.420;2023-01-08T10:05:54;3.90;;;2.65;;
63784;SDS011;49927;48.146;11.420;2023-01-08T10:08:22;4.55;;;3.25;;
63784;SDS011;49927;48.146;11.420;2023-01-08T10:10:47;11.40;;;4.43;;
63784;SDS011;49927;48.146;11.420;2023-01-08T10:13:13;8.55;;;4.03;;
63784;SDS011;49927;48.146;11.420;2023-01-08T10:15:39;21.75;;;7.85;;
63784;SDS011;49927;48.146;11.420;2023-01-08T10:18:05;17.73;;;5.70;;
63784;SDS011;49927;48.146;11.420;2023-01-08T10:20:33;11.43;;;4.03;;
63784;SDS011;49927;48.146;11.420;2023-01-08T10:23:08;9.30;;;3.53;;
63784;SDS011;49927;48.146;11.420;2023-01-08T10:25:45;6.38;;;3.13;;
63784;SDS011;49927;48.146;11.420;2023-01-08T10:28:15;5.47;;;2.92;;
63784;SDS011;49927;48.146;11.420;2023-01-08T10:30:43;12.75;;;4.45;;
63784;SDS011;49927;48.146;11.420;2023-01-08T10:33:09;8.20;;;3.08;;
63784;SDS011;49927;48.146;11.420;2023-01-08T10:35:36;6.30;;;3.63;;
63784;SDS011;49927;48.146;11.420;2023-01-08T10:38:03;5.35;;;2.38;;
63784;SDS011;49927;48.146;11.420;2023-01-08T10:40:32;7.75;;;2.67;;
63784;SDS011;49927;48.146;11.420;2023-01-08T10:43:04;6.97;;;3.05;;
63784;SDS011;49927;48.146;11.420;2023-01-08T10:45:31;10.35;;;3.15;;
63784;SDS011;49927;48.146;11.420;2023-01-08T10:47:58;10.52;;;3.72;;
63784;SDS011;49927;48.146;11.420;2023-01-08T10:50:26;7.65;;;2.65;;
63784;SDS011;49927;48.146;11.420;2023-01-08T10:52:54;10.10;;;4.35;;
63784;SDS011;49927;48.146;11.420;2023-01-08T10:55:21;4.53;;;2.42;;
63784;SDS011;49927;48.146;11.420;2023-01-08T10:57:53;3.30;;;2.35;;
63784;SDS011;49927;48.146;11.420;2023-01-08T11:00:21;54.28;;;15.27;;
63784;SDS011;49927;48.146;11.420;2023-01-08T11:02:48;10.48;;;4.47;;
63784;SDS011;49927;48.146;11.420;2023-01-08T11:05:13;8.30;;;2.92;;
63784;SDS011;49927;48.146;11.420;2023-01-08T11:07:39;11.18;;;3.47;;
63784;SDS011;49927;48.146;11.420;2023-01-08T11:10:05;5.20;;;2.20;;
63784;SDS011;49927;48.146;11.420;2023-01-08T11:12:33;5.13;;;2.22;;
63784;SDS011;49927;48.146;11.420;2023-01-08T11:15:00;2.22;;;1.50;;
63784;SDS011;49927;48.146;11.420;2023-01-08T11:17:27;3.88;;;1.73;;
63784;SDS011;49927;48.146;11.420;2023-01-08T11:19:53;9.02;;;3.63;;
63784;SDS011;49927;48.146;11.420;2023-01-08T11:22:20;4.88;;;2.95;;
63784;SDS011;49927;48.146;11.420;2023-01-08T11:24:46;8.80;;;3.53;;
63784;SDS011;49927;48.146;11.420;2023-01-08T11:27:14;19.15;;;6.30;;
63784;SDS011;49927;48.146;11.420;2023-01-08T11:29:42;6.53;;;2.70;;
63784;SDS011;49927;48.146;11.420;2023-01-08T11:32:16;7.35;;;3.30;;
63784;SDS011;49927;48.146;11.420;2023-01-08T11:34:50;4.85;;;2.45;;
63784;SDS011;49927;48.146;11.420;2023-01-08T11:37:19;19.75;;;6.80;;
63784;SDS011;49927;48.146;11.420;2023-01-08T11:39:46;3.78;;;2.20;;
63784;SDS011;49927;48.146;11.420;2023-01-08T11:42:14;13.10;;;3.95;;
63784;SDS011;49927;48.146;11.420;2023-01-08T11:44:52;4.05;;;1.80;;
63784;SDS011;49927;48.146;11.420;2023-01-08T11:47:30;5.07;;;1.95;;
63784;SDS011;49927;48.146;11.420;2023-01-08T11:50:12;11.75;;;4.03;;
63784;SDS011;49927;48.146;11.420;2023-01-08T11:52:50;7.13;;;3.10;;
63784;SDS011;49927;48.146;11.420;2023-01-08T11:55:24;3.08;;;1.75;;
63784;SDS011;49927;48.146;11.420;2023-01-08T11:57:58;5.63;;;2.47;;
63784;SDS011;49927;48.146;11.420;2023-01-08T12:03:26;3.03;;;1.88;;
63784;SDS011;49927;48.146;11.420;2023-01-08T12:05:55;2.50;;;1.55;;
63784;SDS011;49927;48.146;11.420;2023-01-08T12:08:32;5.07;;;2.10;;
63784;SDS011;49927;48.146;11.420;2023-01-08T12:11:02;4.30;;;2.45;;
63784;SDS011;49927;48.146;11.420;2023-01-08T12:16:40;2.60;;;1.80;;
63784;SDS011;49927;48.146;11.420;2023-01-08T12:19:21;2.33;;;1.60;;
63784;SDS011;49927;48.146;11.420;2023-01-08T12:21:57;2.00;;;1.45;;
63784;SDS011;49927;48.146;11.420;2023-01-08T12:24:43;4.65;;;3.17;;
63784;SDS011;49927;48.146;11.420;2023-01-08T12:27:17;16.50;;;7.82;;
63784;SDS011;49927;48.146;11.420;2023-01-08T12:29:56;20.85;;;10.73;;
63784;SDS011;49927;48.146;11.420;2023-01-08T12:32:29;12.13;;;5.43;;
63784;SDS011;49927;48.146;11.420;2023-01-08T12:35:03;5.63;;;3.58;;
63784;SDS011;49927;48.146;11.420;2023-01-08T12:37:32;5.75;;;2.72;;
63784;SDS011;49927;48.146;11.420;2023-01-08T12:40:04;2.78;;;1.90;;
63784;SDS011;49927;48.146;11.420;2023-01-08T12:42:37;2.53;;;1.92;;
63784;SDS011;49927;48.146;11.420;2023-01-08T12:45:05;3.65;;;2.72;;
63784;SDS011;49927;48.146;11.420;2023-01-08T12:47:38;4.38;;;2.40;;
63784;SDS011;49927;48.146;11.420;2023-01-08T12:50:17;4.75;;;2.97;;
63784;SDS011;49927;48.146;11.420;2023-01-08T12:52:46;9.98;;;6.40;;
63784;SDS011;49927;48.146;11.420;2023-01-08T12:55:20;18.75;;;13.38;;
63784;SDS011;49927;48.146;11.420;2023-01-08T12:57:52;7.15;;;5.07;;
63784;SDS011;49927;48.146;11.420;2023-01-08T13:00:25;8.02;;;3.95;;
63784;SDS011;49927;48.146;11.420;2023-01-08T13:02:55;8.07;;;4.45;;
63784;SDS011;49927;48.146;11.420;2023-01-08T13:05:30;7.25;;;4.22;;
63784;SDS011;49927;48.146;11.420;2023-01-08T13:07:57;9.77;;;4.50;;
63784;SDS011;49927;48.146;11.420;2023-01-08T13:10:27;11.02;;;4.10;;
63784;SDS011;49927;48.146;11.420;2023-01-08T13:12:58;7.28;;;4.32;;
63784;SDS011;49927;48.146;11.420;2023-01-08T13:15:24;8.27;;;4.50;;
63784;SDS011;49927;48.146;11.420;2023-01-08T13:17:51;6.85;;;3.70;;
63784;SDS011;49927;48.146;11.420;2023-01-08T13:20:19;5.15;;;3.35;;
63784;SDS011;49927;48.146;11.420;2023-01-08T13:22:51;8.02;;;3.58;;
63784;SDS011;49927;48.146;11.420;2023-01-08T13:25:27;14.65;;;6.07;;
63784;SDS011;49927;48.146;11.420;2023-01-08T13:27:54;8.98;;;5.85;;
63784;SDS011;49927;48.146;11.420;2023-01-08T13:30:34;14.98;;;7.57;;
63784;SDS011;49927;48.146;11.420;2023-01-08T13:33:01;9.07;;;5.47;;
63784;SDS011;49927;48.146;11.420;2023-01-08T13:35:29;9.93;;;4.65;;
63784;SDS011;49927;48.146;11.420;2023-01-08T13:40:49;9.98;;;5.00;;
63784;SDS011;49927;48.146;11.420;2023-01-08T13:43:21;20.48;;;6.97;;
63784;SDS011;49927;48.146;11.420;2023-01-08T13:46:02;14.35;;;6.15;;
63784;SDS011;49927;48.146;11.420;2023-01-08T13:48:31;8.23;;;4.85;;
63784;SDS011;49927;48.146;11.420;2023-01-08T13:50:59;8.23;;;4.45;;
63784;SDS011;49927;48.146;11.420;2023-01-08T13:53:26;7.53;;;3.97;;
63784;SDS011;49927;48.146;11.420;2023-01-08T13:55:53;5.93;;;4.72;;
63784;SDS011;49927;48.146;11.420;2023-01-08T13:58:22;9.70;;;4.82;;
63784;SDS011;49927;48.146;11.420;2023-01-08T14:00:49;7.70;;;4.85;;
63784;SDS011;49927;48.146;11.420;2023-01-08T14:03:23;10.05;;;5.43;;
63784;SDS011;49927;48.146;11.420;2023-01-08T14:05:50;8.20;;;5.05;;
63784;SDS011;49927;48.146;11.420;2023-01-08T14:08:21;9.10;;;5.60;;
63784;SDS011;49927;48.146;11.420;2023-01-08T14:10:48;7.00;;;4.35;;
63784;SDS011;49927;48.146;11.420;2023-01-08T14:13:14;8.07;;;4.28;;
63784;SDS011;49927;48.146;11.420;2023-01-08T14:15:41;8.60;;;4.45;;
63784;SDS011;49927;48.146;11.420;2023-01-08T14:18:07;5.93;;;3.13;;
63784;SDS011;49927;48.146;11.420;2023-01-08T14:20:36;5.22;;;3.28;;
63784;SDS011;49927;48.146;11.420;2023-01-08T14:23:07;8.30;;;4.45;;
63784;SDS011;49927;48.146;11.420;2023-01-08T14:25:34;5.57;;;3.92;;
63784;SDS011;49927;48.146;11.420;2023-01-08T14:28:02;7.78;;;3.90;;
63784;SDS011;49927;48.146;11.420;2023-01-08T14:30:29;7.28;;;3.75;;
63784;SDS011;49927;48.146;11.420;2023-01-08T14:32:55;6.78;;;3.80;;
63784;SDS011;49927;48.146;11.420;2023-01-08T14:35:24;7.95;;;3.90;;
63784;SDS011;49927;48.146;11.420;2023-01-08T14:37:52;6.82;;;3.88;;
63784;SDS011;49927;48.146;11.420;2023-01-08T14:40:23;5.60;;;3.03;;
63784;SDS011;49927;48.146;11.420;2023-01-08T14:42:53;10.50;;;3.43;;
63784;SDS011;49927;48.146;11.420;2023-01-08T14:45:20;14.00;;;7.40;;